Time,TemperatureF,DewpointF,PressureIn,WindDirection,WindDirectionDegrees,WindSpeedMPH,WindSpeedGustMPH,Humidity,HourlyPrecipIn,Conditions,Clouds,dailyrainin,SoftwareType,DateUTC
2013-10-30 00:14:00,29.6,18.0,30.35,ENE,78,2.0,2.0,63,0.00,,,0.00,weatherlink.com 1.10,2013-10-30 04:14:00,
2013-10-30 00:29:00,29.4,19.0,30.35,ENE,77,1.0,2.0,65,0.00,,,0.00,weatherlink.com 1.10,2013-10-30 04:29:00,
2013-10-30 00:44:00,29.4,19.0,30.35,ENE,76,1.0,1.0,65,0.00,,,0.00,weatherlink.com 1.10,2013-10-30 04:44:00,
2013-10-30 00:59:00,29.6,18.0,30.34,ENE,66,1.0,2.0,63,0.00,,,0.00,weatherlink.com 1.10,2013-10-30 04:59:00,
2013-10-30 01:14:00,29.8,19.0,30.34,East,86,2.0,2.0,64,0.00,,,0.00,weatherlink.com 1.10,2013-10-30 05:14:00,
2013-10-30 01:29:00,30.5,19.0,30.34,ESE,107,0.0,2.0,62,0.00,,,0.00,weatherlink.com 1.10,2013-10-30 05:29:00,
2013-10-30 01:44:00,30.8,19.0,30.33,East,93,0.0,1.0,61,0.00,,,0.00,weatherlink.com 1.10,2013-10-30 05:44:00,
2013-10-30 01:59:00,30.9,18.0,30.33,ESE,110,0.0,2.0,59,0.00,,,0.00,weatherlink.com 1.10,2013-10-30 05:59:00,
2013-10-30 02:14:00,31.2,18.0,30.32,ENE,77,1.0,1.0,59,0.00,,,0.00,weatherlink.com 1.10,2013-10-30 06:14:00,
2013-10-30 02:29:00,31.5,18.0,30.32,ENE,57,0.0,3.0,57,0.00,,,0.00,weatherlink.com 1.10,2013-10-30 06:29:00,
2013-10-30 02:44:00,31.8,18.0,30.32,East,98,1.0,3.0,58,0.00,,,0.00,weatherlink.com 1.10,2013-10-30 06:44:00,
2013-10-30 02:59:00,31.7,19.0,30.31,SE,129,1.0,3.0,59,0.00,,,0.00,weatherlink.com 1.10,2013-10-30 06:59:00,
2013-10-30 03:14:00,31.4,19.0,30.31,SSW,211,1.0,1.0,61,0.00,,,0.00,weatherlink.com 1.10,2013-10-30 07:14:00,
2013-10-30 03:29:00,31.3,19.0,30.30,WSW,257,0.0,3.0,60,0.00,,,0.00,weatherlink.com 1.10,2013-10-30 07:29:00,
2013-10-30 03:44:00,31.1,19.0,30.30,East,101,0.0,2.0,62,0.00,,,0.00,weatherlink.com 1.10,2013-10-30 07:44:00,
2013-10-30 03:59:00,30.9,20.0,30.29,ESE,117,0.0,2.0,65,0.00,,,0.00,weatherlink.com 1.10,2013-10-30 07:59:00,
2013-10-30 04:14:00,30.9,20.0,30.29,ENE,76,0.0,1.0,65,0.00,,,0.00,weatherlink.com 1.10,2013-10-30 08:14:00,
2013-10-30 04:29:00,31.0,21.0,30.30,ENE,66,0.0,1.0,66,0.00,,,0.00,weatherlink.com 1.10,2013-10-30 08:29:00,
2013-10-30 04:44:00,30.9,21.0,30.30,ENE,66,0.0,1.0,68,0.00,,,0.00,weatherlink.com 1.10,2013-10-30 08:44:00,
2013-10-30 04:59:00,30.9,21.0,30.29,SSE,150,0.0,1.0,68,0.00,,,0.00,weatherlink.com 1.10,2013-10-30 08:59:00,
2013-10-30 05:14:00,30.9,21.0,30.29,NNW,347,0.0,0.0,68,0.00,,,0.00,weatherlink.com 1.10,2013-10-30 09:14:00,
2013-10-30 05:29:00,31.0,21.0,30.29,SSE,160,1.0,1.0,67,0.00,,,0.00,weatherlink.com 1.10,2013-10-30 09:29:00,
2013-10-30 05:44:00,31.2,22.0,30.29,ESE,113,1.0,2.0,69,0.00,,,0.00,weatherlink.com 1.10,2013-10-30 09:44:00,
2013-10-30 05:59:00,31.3,22.0,30.30,SSE,150,0.0,2.0,68,0.00,,,0.00,weatherlink.com 1.10,2013-10-30 09:59:00,
2013-10-30 06:14:00,31.4,22.0,30.30,SSE,153,0.0,2.0,69,0.00,,,0.00,weatherlink.com 1.10,2013-10-30 10:14:00,
2013-10-30 06:29:00,31.6,22.0,30.29,ESE,103,4.0,4.0,68,0.00,,,0.00,weatherlink.com 1.10,2013-10-30 10:29:00,
2013-10-30 06:44:00,31.5,23.0,30.29,ESE,114,0.0,2.0,70,0.00,,,0.00,weatherlink.com 1.10,2013-10-30 10:44:00,
2013-10-30 06:59:00,31.6,23.0,30.29,SSE,166,1.0,3.0,71,0.00,,,0.00,weatherlink.com 1.10,2013-10-30 10:59:00,
2013-10-30 07:14:00,31.4,24.0,30.29,SSW,207,0.0,3.0,73,0.00,,,0.00,weatherlink.com 1.10,2013-10-30 11:14:00,
2013-10-30 07:29:00,31.1,24.0,30.30,West,280,0.0,2.0,76,0.00,,,0.00,weatherlink.com 1.10,2013-10-30 11:29:00,
2013-10-30 07:44:00,30.6,26.0,30.30,SSE,166,0.0,0.0,82,0.00,,,0.00,weatherlink.com 1.10,2013-10-30 11:44:00,
2013-10-30 07:59:00,30.0,27.0,30.30,SSW,210,0.0,1.0,87,0.00,,,0.00,weatherlink.com 1.10,2013-10-30 11:59:00,
2013-10-30 08:14:00,29.6,27.0,30.30,WSW,238,0.0,1.0,88,0.00,,,0.00,weatherlink.com 1.10,2013-10-30 12:14:00,
2013-10-30 08:29:00,29.6,27.0,30.30,SW,215,0.0,1.0,90,0.00,,,0.00,weatherlink.com 1.10,2013-10-30 12:29:00,
2013-10-30 08:44:00,29.9,28.0,30.30,NE,39,0.0,1.0,91,0.00,,,0.00,weatherlink.com 1.10,2013-10-30 12:44:00,
2013-10-30 08:59:00,30.0,28.0,30.30,ENE,61,0.0,1.0,90,0.00,,,0.00,weatherlink.com 1.10,2013-10-30 12:59:00,
2013-10-30 09:14:00,30.2,28.0,30.30,SW,218,0.0,1.0,91,0.00,,,0.00,weatherlink.com 1.10,2013-10-30 13:14:00,
2013-10-30 09:29:00,30.9,29.0,30.30,SSW,203,0.0,1.0,91,0.00,,,0.00,weatherlink.com 1.10,2013-10-30 13:29:00,
2013-10-30 09:44:00,31.4,29.0,30.30,ENE,60,0.0,1.0,90,0.00,,,0.00,weatherlink.com 1.10,2013-10-30 13:44:00,
2013-10-30 10:00:00,31.6,29.0,30.30,West,266,0.0,1.0,89,0.00,,,0.00,weatherlink.com 1.10,2013-10-30 14:00:00,
2013-10-30 10:30:00,32.9,30.0,30.29,SSW,200,0.0,0.0,87,0.00,,,0.00,weatherlink.com 1.10,2013-10-30 14:30:00,
2013-10-30 10:45:00,33.5,30.0,30.29,SSE,153,0.0,1.0,85,0.00,,,0.00,weatherlink.com 1.10,2013-10-30 14:45:00,
2013-10-30 11:00:00,34.0,30.0,30.29,SE,139,0.0,2.0,84,0.00,,,0.00,weatherlink.com 1.10,2013-10-30 15:00:00,
2013-10-30 11:15:00,34.3,30.0,30.29,WSW,246,0.0,3.0,85,0.00,,,0.00,weatherlink.com 1.10,2013-10-30 15:15:00,
2013-10-30 11:30:00,34.4,30.0,30.28,South,186,0.0,1.0,85,0.01,,,0.01,weatherlink.com 1.10,2013-10-30 15:30:00,
2013-10-30 11:45:00,34.4,30.0,30.28,ESE,110,0.0,1.0,85,0.01,,,0.01,weatherlink.com 1.10,2013-10-30 15:45:00,
2013-10-30 12:00:00,34.5,30.0,30.27,SW,221,0.0,2.0,84,0.02,,,0.02,weatherlink.com 1.10,2013-10-30 16:00:00,
2013-10-30 12:15:00,34.8,31.0,30.27,West,265,0.0,2.0,85,0.02,,,0.02,weatherlink.com 1.10,2013-10-30 16:15:00,
2013-10-30 12:30:00,35.2,31.0,30.26,West,260,1.0,3.0,85,0.02,,,0.03,weatherlink.com 1.10,2013-10-30 16:30:00,
2013-10-30 12:45:00,35.9,31.0,30.26,South,190,0.0,1.0,83,0.02,,,0.03,weatherlink.com 1.10,2013-10-30 16:45:00,
2013-10-30 13:00:00,36.6,32.0,30.25,West,280,0.0,1.0,83,0.01,,,0.03,weatherlink.com 1.10,2013-10-30 17:00:00,
2013-10-30 13:15:00,36.5,32.0,30.25,South,183,0.0,4.0,82,0.01,,,0.03,weatherlink.com 1.10,2013-10-30 17:15:00,
2013-10-30 13:30:00,37.3,33.0,30.24,West,262,0.0,4.0,83,0.00,,,0.03,weatherlink.com 1.10,2013-10-30 17:30:00,
2013-10-30 13:45:00,37.4,33.0,30.24,SSW,198,0.0,3.0,83,0.00,,,0.03,weatherlink.com 1.10,2013-10-30 17:45:00,
2013-10-30 14:00:00,37.0,32.0,30.24,SW,236,0.0,3.0,81,0.00,,,0.03,weatherlink.com 1.10,2013-10-30 18:00:00,
2013-10-30 14:15:00,37.2,32.0,30.23,South,188,0.0,2.0,81,0.00,,,0.03,weatherlink.com 1.10,2013-10-30 18:15:00,
2013-10-30 14:30:00,37.5,33.0,30.23,South,176,0.0,1.0,82,0.00,,,0.03,weatherlink.com 1.10,2013-10-30 18:30:00,
2013-10-30 14:45:00,37.7,32.0,30.23,West,274,0.0,2.0,81,0.00,,,0.03,weatherlink.com 1.10,2013-10-30 18:45:00,
2013-10-30 15:00:00,38.1,32.0,30.22,West,267,1.0,3.0,80,0.00,,,0.03,weatherlink.com 1.10,2013-10-30 19:00:00,
2013-10-30 15:15:00,38.9,33.0,30.22,WNW,297,1.0,3.0,79,0.00,,,0.03,weatherlink.com 1.10,2013-10-30 19:15:00,
2013-10-30 15:30:00,38.5,33.0,30.22,WSW,253,0.0,3.0,79,0.00,,,0.03,weatherlink.com 1.10,2013-10-30 19:30:00,
2013-10-30 15:45:00,39.0,33.0,30.22,West,276,1.0,4.0,79,0.00,,,0.03,weatherlink.com 1.10,2013-10-30 19:45:00,
2013-10-30 16:00:00,38.8,33.0,30.22,SSW,211,0.0,4.0,79,0.00,,,0.03,weatherlink.com 1.10,2013-10-30 20:00:00,
2013-10-30 16:15:00,38.7,33.0,30.22,NW,309,0.0,2.0,79,0.00,,,0.03,weatherlink.com 1.10,2013-10-30 20:15:00,
2013-10-30 16:30:00,38.5,33.0,30.22,SW,223,0.0,0.0,79,0.00,,,0.03,weatherlink.com 1.10,2013-10-30 20:30:00,
2013-10-30 16:45:00,38.3,33.0,30.22,SSW,204,0.0,0.0,81,0.00,,,0.03,weatherlink.com 1.10,2013-10-30 20:45:00,
2013-10-30 17:00:00,38.0,33.0,30.21,West,269,0.0,0.0,81,0.00,,,0.03,weatherlink.com 1.10,2013-10-30 21:00:00,
2013-10-30 17:15:00,38.2,33.0,30.21,SW,228,0.0,1.0,81,0.00,,,0.03,weatherlink.com 1.10,2013-10-30 21:15:00,
2013-10-30 17:30:00,38.3,33.0,30.21,WNW,290,0.0,1.0,81,0.00,,,0.03,weatherlink.com 1.10,2013-10-30 21:30:00,
2013-10-30 17:45:00,37.5,33.0,30.22,SSW,195,0.0,0.0,82,0.00,,,0.03,weatherlink.com 1.10,2013-10-30 21:45:00,
2013-10-30 18:00:00,35.6,31.0,30.22,East,89,0.0,1.0,84,0.00,,,0.03,weatherlink.com 1.10,2013-10-30 22:00:00,
2013-10-30 18:15:00,34.7,31.0,30.23,East,89,1.0,1.0,86,0.00,,,0.03,weatherlink.com 1.10,2013-10-30 22:15:00,
2013-10-30 18:30:00,34.7,31.0,30.23,East,89,0.0,1.0,87,0.00,,,0.03,weatherlink.com 1.10,2013-10-30 22:30:00,
2013-10-30 18:45:00,34.4,31.0,30.23,ENE,65,0.0,1.0,87,0.00,,,0.03,weatherlink.com 1.10,2013-10-30 22:45:00,
2013-10-30 19:00:00,34.0,31.0,30.24,East,82,0.0,1.0,88,0.00,,,0.03,weatherlink.com 1.10,2013-10-30 23:00:00,
2013-10-30 19:15:00,35.2,32.0,30.24,SE,138,1.0,1.0,88,0.00,,,0.03,weatherlink.com 1.10,2013-10-30 23:15:00,
2013-10-30 19:30:00,36.1,32.0,30.25,SSE,158,1.0,1.0,86,0.00,,,0.03,weatherlink.com 1.10,2013-10-30 23:30:00,
2013-10-30 19:45:00,36.9,33.0,30.25,SSW,199,1.0,1.0,85,0.00,,,0.03,weatherlink.com 1.10,2013-10-30 23:45:00,
2013-10-30 20:00:00,37.2,33.0,30.24,South,169,1.0,2.0,85,0.00,,,0.03,weatherlink.com 1.10,2013-10-31 00:00:00,
2013-10-30 20:15:00,36.7,33.0,30.24,SE,130,0.0,1.0,85,0.00,,,0.03,weatherlink.com 1.10,2013-10-31 00:15:00,
2013-10-30 20:30:00,36.3,32.0,30.24,SE,127,0.0,1.0,85,0.00,,,0.03,weatherlink.com 1.10,2013-10-31 00:30:00,
2013-10-30 20:45:00,34.9,31.0,30.23,ESE,121,0.0,1.0,87,0.00,,,0.03,weatherlink.com 1.10,2013-10-31 00:45:00,
2013-10-30 21:00:00,34.1,31.0,30.23,East,94,1.0,1.0,89,0.00,,,0.03,weatherlink.com 1.10,2013-10-31 01:00:00,
2013-10-30 21:15:00,33.6,31.0,30.23,East,85,0.0,0.0,90,0.00,,,0.03,weatherlink.com 1.10,2013-10-31 01:15:00,
2013-10-30 21:30:00,33.3,31.0,30.23,East,82,0.0,0.0,91,0.00,,,0.03,weatherlink.com 1.10,2013-10-31 01:30:00,
2013-10-30 21:46:00,33.7,31.0,30.23,East,84,0.0,0.0,91,0.00,,,0.03,weatherlink.com 1.10,2013-10-31 01:46:00,
2013-10-30 22:01:00,33.9,32.0,30.23,East,88,0.0,0.0,91,0.00,,,0.03,weatherlink.com 1.10,2013-10-31 02:01:00,
2013-10-30 22:16:00,33.9,32.0,30.23,East,89,1.0,1.0,91,0.00,,,0.03,weatherlink.com 1.10,2013-10-31 02:16:00,
2013-10-30 22:31:00,33.9,32.0,30.24,East,90,0.0,1.0,91,0.00,,,0.03,weatherlink.com 1.10,2013-10-31 02:31:00,
2013-10-30 22:46:00,34.0,32.0,30.24,East,89,1.0,1.0,92,0.00,,,0.03,weatherlink.com 1.10,2013-10-31 02:46:00,
2013-10-30 23:01:00,34.6,32.0,30.24,East,93,1.0,2.0,91,0.00,,,0.03,weatherlink.com 1.10,2013-10-31 03:01:00,
2013-10-30 23:16:00,34.0,32.0,30.24,ENE,75,2.0,2.0,91,0.00,,,0.03,weatherlink.com 1.10,2013-10-31 03:16:00,
2013-10-30 23:31:00,33.6,31.0,30.24,East,86,1.0,1.0,91,0.00,,,0.03,weatherlink.com 1.10,2013-10-31 03:31:00,
2013-10-30 23:46:00,34.0,32.0,30.24,East,94,1.0,1.0,92,0.00,,,0.03,weatherlink.com 1.10,2013-10-31 03:46:00,